sensor_id;sensor_type;location;lat;lon;timestamp;pressure;altitude;pressure_sealevel;temperature;humidity
74403;BME280;62837;51.082;13.744;2022-12-07T00:00:30;100195.09;;;4.10;80.13
74403;BME280;62837;51.082;13.744;2022-12-07T00:03:00;100199.36;;;4.11;80.36
74403;BME280;62837;51.082;13.744;2022-12-07T00:05:32;100198.95;;;4.15;80.58
74403;BME280;62837;51.082;13.744;2022-12-07T00:08:03;100191.91;;;4.15;79.95
74403;BME280;62837;51.082;13.744;2022-12-07T00:10:36;100192.25;;;4.15;80.22
74403;BME280;62837;51.082;13.744;2022-12-07T00:13:06;100193.73;;;4.14;79.19
74403;BME280;62837;51.082;13.744;2022-12-07T00:15:37;100191.32;;;4.07;79.02
74403;BME280;62837;51.082;13.744;2022-12-07T00:18:08;100191.08;;;4.02;79.43
74403;BME280;62837;51.082;13.744;2022-12-07T00:20:39;100191.22;;;4.03;79.68
74403;BME280;62837;51.082;13.744;2022-12-07T00:23:09;100185.15;;;4.08;80.23
74403;BME280;62837;51.082;13.744;2022-12-07T00:25:40;100184.48;;;4.15;80.44
74403;BME280;62837;51.082;13.744;2022-12-07T00:28:11;100181.73;;;4.23;79.57
74403;BME280;62837;51.082;13.744;2022-12-07T00:30:42;100176.01;;;4.22;79.16
74403;BME280;62837;51.082;13.744;2022-12-07T00:33:12;100172.05;;;4.19;78.65
74403;BME280;62837;51.082;13.744;2022-12-07T00:35:43;100173.61;;;4.16;79.43
74403;BME280;62837;51.082;13.744;2022-12-07T00:38:14;100174.42;;;4.15;78.72
74403;BME280;62837;51.082;13.744;2022-12-07T00:40:44;100170.11;;;4.11;79.19
74403;BME280;62837;51.082;13.744;2022-12-07T00:43:23;100169.17;;;4.08;78.63
74403;BME280;62837;51.082;13.744;2022-12-07T00:45:55;100169.16;;;4.03;78.84
74403;BME280;62837;51.082;13.744;2022-12-07T00:48:26;100167.97;;;4.03;78.83
74403;BME280;62837;51.082;13.744;2022-12-07T00:50:57;100168.26;;;4.02;78.77
74403;BME280;62837;51.082;13.744;2022-12-07T00:53:29;100168.42;;;4.01;78.98
74403;BME280;62837;51.082;13.744;2022-12-07T00:56:08;100168.84;;;4.02;78.78
74403;BME280;62837;51.082;13.744;2022-12-07T00:58:39;100164.20;;;4.01;78.98
74403;BME280;62837;51.082;13.744;2022-12-07T01:01:10;100162.48;;;4.03;79.10
74403;BME280;62837;51.082;13.744;2022-12-07T01:03:41;100163.70;;;4.01;78.66
74403;BME280;62837;51.082;13.744;2022-12-07T01:06:15;100162.06;;;3.97;78.45
74403;BME280;62837;51.082;13.744;2022-12-07T01:08:46;100160.39;;;3.96;79.01
74403;BME280;62837;51.082;13.744;2022-12-07T01:11:19;100158.46;;;3.97;78.33
74403;BME280;62837;51.082;13.744;2022-12-07T01:13:53;100161.20;;;3.99;79.33
74403;BME280;62837;51.082;13.744;2022-12-07T01:16:26;100159.66;;;4.04;79.11
74403;BME280;62837;51.082;13.744;2022-12-07T01:18:57;100160.19;;;4.05;78.66
74403;BME280;62837;51.082;13.744;2022-12-07T01:21:30;100160.31;;;4.04;78.65
74403;BME280;62837;51.082;13.744;2022-12-07T01:24:05;100158.39;;;4.05;79.67
74403;BME280;62837;51.082;13.744;2022-12-07T01:26:37;100150.49;;;4.18;80.60
74403;BME280;62837;51.082;13.744;2022-12-07T01:29:08;100146.23;;;4.31;79.28
74403;BME280;62837;51.082;13.744;2022-12-07T01:31:39;100148.86;;;4.31;78.31
74403;BME280;62837;51.082;13.744;2022-12-07T01:34:10;100151.70;;;4.28;77.94
74403;BME280;62837;51.082;13.744;2022-12-07T01:36:40;100150.55;;;4.25;78.34
74403;BME280;62837;51.082;13.744;2022-12-07T01:39:11;100151.14;;;4.21;77.94
74403;BME280;62837;51.082;13.744;2022-12-07T01:41:42;100152.56;;;4.16;78.12
74403;BME280;62837;51.082;13.744;2022-12-07T01:44:20;100151.88;;;4.09;77.99
74403;BME280;62837;51.082;13.744;2022-12-07T01:46:52;100151.25;;;4.03;77.72
74403;BME280;62837;51.082;13.744;2022-12-07T01:49:28;100154.45;;;4.00;78.27
74403;BME280;62837;51.082;13.744;2022-12-07T01:52:06;100153.36;;;3.97;77.92
74403;BME280;62837;51.082;13.744;2022-12-07T01:54:41;100153.08;;;3.95;78.18
74403;BME280;62837;51.082;13.744;2022-12-07T01:57:12;100158.63;;;3.97;78.77
74403;BME280;62837;51.082;13.744;2022-12-07T01:59:47;100156.76;;;4.00;78.11
74403;BME280;62837;51.082;13.744;2022-12-07T02:02:22;100158.03;;;4.04;79.25
74403;BME280;62837;51.082;13.744;2022-12-07T02:04:54;100159.83;;;4.14;78.96
74403;BME280;62837;51.082;13.744;2022-12-07T02:07:26;100155.54;;;4.19;79.02
74403;BME280;62837;51.082;13.744;2022-12-07T02:09:57;100151.24;;;4.27;78.56
74403;BME280;62837;51.082;13.744;2022-12-07T02:12:28;100152.52;;;4.26;78.49
74403;BME280;62837;51.082;13.744;2022-12-07T02:14:59;100150.16;;;4.23;77.97
74403;BME280;62837;51.082;13.744;2022-12-07T02:17:35;100146.36;;;4.23;78.31
74403;BME280;62837;51.082;13.744;2022-12-07T02:20:24;100147.66;;;4.21;77.81
74403;BME280;62837;51.082;13.744;2022-12-07T02:29:16;100148.44;;;4.00;77.19
74403;BME280;62837;51.082;13.744;2022-12-07T02:31:53;100144.18;;;3.98;78.33
74403;BME280;62837;51.082;13.744;2022-12-07T02:34:34;100142.95;;;3.97;77.18
74403;BME280;62837;51.082;13.744;2022-12-07T02:37:12;100145.96;;;3.96;80.00
74403;BME280;62837;51.082;13.744;2022-12-07T02:39:51;100143.15;;;4.10;79.55
74403;BME280;62837;51.082;13.744;2022-12-07T02:42:26;100135.06;;;4.22;78.51
74403;BME280;62837;51.082;13.744;2022-12-07T02:45:00;100128.75;;;4.20;77.13
74403;BME280;62837;51.082;13.744;2022-12-07T02:47:33;100129.91;;;4.12;77.55
74403;BME280;62837;51.082;13.744;2022-12-07T02:50:07;100128.61;;;4.08;76.48
74403;BME280;62837;51.082;13.744;2022-12-07T02:52:38;100126.83;;;4.01;77.18
74403;BME280;62837;51.082;13.744;2022-12-07T02:55:09;100128.70;;;3.88;77.06
74403;BME280;62837;51.082;13.744;2022-12-07T02:57:53;100123.52;;;3.91;77.78
74403;BME280;62837;51.082;13.744;2022-12-07T03:00:24;100125.44;;;3.97;77.50
74403;BME280;62837;51.082;13.744;2022-12-07T03:03:00;100112.46;;;4.07;78.70
74403;BME280;62837;51.082;13.744;2022-12-07T03:05:58;100109.05;;;4.26;79.11
74403;BME280;62837;51.082;13.744;2022-12-07T03:08:36;100110.52;;;4.46;78.86
74403;BME280;62837;51.082;13.744;2022-12-07T03:11:12;100100.94;;;4.63;78.75
74403;BME280;62837;51.082;13.744;2022-12-07T03:13:53;100106.87;;;4.78;78.28
74403;BME280;62837;51.082;13.744;2022-12-07T03:16:29;100098.46;;;4.87;78.15
74403;BME280;62837;51.082;13.744;2022-12-07T03:19:06;100104.05;;;4.99;77.34
74403;BME280;62837;51.082;13.744;2022-12-07T03:21:40;100100.18;;;5.07;77.46
74403;BME280;62837;51.082;13.744;2022-12-07T03:24:18;100097.94;;;5.14;77.23
74403;BME280;62837;51.082;13.744;2022-12-07T03:26:50;100097.79;;;5.18;76.92
74403;BME280;62837;51.082;13.744;2022-12-07T03:29:27;100093.38;;;5.19;75.85
74403;BME280;62837;51.082;13.744;2022-12-07T03:32:01;100092.36;;;5.17;76.14
74403;BME280;62837;51.082;13.744;2022-12-07T03:34:36;100093.15;;;5.15;75.20
74403;BME280;62837;51.082;13.744;2022-12-07T03:37:13;100089.52;;;5.10;75.88
74403;BME280;62837;51.082;13.744;2022-12-07T03:39:54;100084.39;;;5.02;74.78
74403;BME280;62837;51.082;13.744;2022-12-07T03:42:28;100090.16;;;4.80;73.48
74403;BME280;62837;51.082;13.744;2022-12-07T03:45:00;100087.88;;;4.52;73.35
74403;BME280;62837;51.082;13.744;2022-12-07T03:47:35;100079.97;;;4.32;75.33
74403;BME280;62837;51.082;13.744;2022-12-07T03:50:13;100075.69;;;4.36;75.87
74403;BME280;62837;51.082;13.744;2022-12-07T03:52:50;100080.61;;;4.50;76.62
74403;BME280;62837;51.082;13.744;2022-12-07T03:55:28;100081.32;;;4.64;76.40
74403;BME280;62837;51.082;13.744;2022-12-07T03:58:02;100082.98;;;4.72;75.88
74403;BME280;62837;51.082;13.744;2022-12-07T04:00:34;100083.80;;;4.81;76.15
74403;BME280;62837;51.082;13.744;2022-12-07T04:03:05;100079.30;;;4.84;76.11
74403;BME280;62837;51.082;13.744;2022-12-07T04:05:36;100075.16;;;4.91;76.20
74403;BME280;62837;51.082;13.744;2022-12-07T04:08:07;100080.52;;;5.00;76.05
74403;BME280;62837;51.082;13.744;2022-12-07T04:10:38;100079.61;;;5.08;75.85
74403;BME280;62837;51.082;13.744;2022-12-07T04:13:09;100072.38;;;5.15;75.68
74403;BME280;62837;51.082;13.744;2022-12-07T04:15:39;100066.15;;;5.18;74.61
74403;BME280;62837;51.082;13.744;2022-12-07T04:18:10;100060.34;;;5.16;74.97
74403;BME280;62837;51.082;13.744;2022-12-07T04:20:41;100056.02;;;5.17;74.68
74403;BME280;62837;51.082;13.744;2022-12-07T04:23:12;100053.75;;;5.17;74.56
74403;BME280;62837;51.082;13.744;2022-12-07T04:25:43;100049.10;;;5.16;74.73
74403;BME280;62837;51.082;13.744;2022-12-07T04:28:14;100049.99;;;5.15;74.33
74403;BME280;62837;51.082;13.744;2022-12-07T04:30:45;100054.27;;;5.12;74.12
74403;BME280;62837;51.082;13.744;2022-12-07T04:33:15;100051.48;;;5.10;74.47
74403;BME280;62837;51.082;13.744;2022-12-07T04:35:46;100045.89;;;5.12;74.06
74403;BME280;62837;51.082;13.744;2022-12-07T04:38:17;100040.46;;;5.10;74.15
74403;BME280;62837;51.082;13.744;2022-12-07T04:40:47;100039.34;;;5.04;72.69
74403;BME280;62837;51.082;13.744;2022-12-07T04:43:18;100032.58;;;4.84;72.25
74403;BME280;62837;51.082;13.744;2022-12-07T04:45:49;100027.38;;;4.73;73.54
74403;BME280;62837;51.082;13.744;2022-12-07T04:48:20;100019.72;;;4.74;73.77
74403;BME280;62837;51.082;13.744;2022-12-07T04:50:51;100018.82;;;4.79;74.04
74403;BME280;62837;51.082;13.744;2022-12-07T04:53:22;100015.98;;;4.81;73.67
74403;BME280;62837;51.082;13.744;2022-12-07T04:55:52;100020.00;;;4.84;73.57
74403;BME280;62837;51.082;13.744;2022-12-07T04:58:23;100017.60;;;4.85;73.61
74403;BME280;62837;51.082;13.744;2022-12-07T05:00:56;100015.08;;;4.87;73.75
74403;BME280;62837;51.082;13.744;2022-12-07T05:03:27;100010.02;;;4.82;71.82
74403;BME280;62837;51.082;13.744;2022-12-07T05:05:58;100009.99;;;4.59;72.09
74403;BME280;62837;51.082;13.744;2022-12-07T05:08:28;100007.32;;;4.53;73.07
74403;BME280;62837;51.082;13.744;2022-12-07T05:10:59;99999.98;;;4.43;71.25
74403;BME280;62837;51.082;13.744;2022-12-07T05:13:30;99998.63;;;4.26;72.81
74403;BME280;62837;51.082;13.744;2022-12-07T05:16:01;100002.55;;;4.24;72.98
74403;BME280;62837;51.082;13.744;2022-12-07T05:18:32;100000.55;;;4.21;73.02
74403;BME280;62837;51.082;13.744;2022-12-07T05:21:02;100001.53;;;4.19;72.47
74403;BME280;62837;51.082;13.744;2022-12-07T05:23:33;99997.35;;;4.05;72.05
74403;BME280;62837;51.082;13.744;2022-12-07T05:26:04;99997.86;;;3.93;73.27
74403;BME280;62837;51.082;13.744;2022-12-07T05:28:35;99993.52;;;3.98;73.66
74403;BME280;62837;51.082;13.744;2022-12-07T05:31:06;99999.64;;;4.05;74.00
74403;BME280;62837;51.082;13.744;2022-12-07T05:33:38;99998.00;;;4.13;73.71
74403;BME280;62837;51.082;13.744;2022-12-07T05:36:09;99995.11;;;4.24;74.12
74403;BME280;62837;51.082;13.744;2022-12-07T05:38:40;99993.21;;;4.36;74.20
74403;BME280;62837;51.082;13.744;2022-12-07T05:41:14;99989.99;;;4.48;74.06
74403;BME280;62837;51.082;13.744;2022-12-07T05:43:59;99990.35;;;4.52;72.88
74403;BME280;62837;51.082;13.744;2022-12-07T05:46:30;99987.92;;;4.43;73.18
74403;BME280;62837;51.082;13.744;2022-12-07T05:49:01;99984.23;;;4.40;72.74
74403;BME280;62837;51.082;13.744;2022-12-07T05:51:32;99982.14;;;4.43;73.43
74403;BME280;62837;51.082;13.744;2022-12-07T05:54:03;99976.39;;;4.51;73.47
74403;BME280;62837;51.082;13.744;2022-12-07T05:56:33;99969.54;;;4.56;73.41
74403;BME280;62837;51.082;13.744;2022-12-07T05:59:04;99967.10;;;4.58;73.18
74403;BME280;62837;51.082;13.744;2022-12-07T06:01:54;99966.55;;;4.62;73.01
74403;BME280;62837;51.082;13.744;2022-12-07T06:04:27;99962.33;;;4.62;73.13
74403;BME280;62837;51.082;13.744;2022-12-07T06:06:58;99964.45;;;4.63;72.70
74403;BME280;62837;51.082;13.744;2022-12-07T06:09:29;99962.91;;;4.62;72.55
74403;BME280;62837;51.082;13.744;2022-12-07T06:12:01;99962.36;;;4.68;73.35
74403;BME280;62837;51.082;13.744;2022-12-07T06:14:49;99959.49;;;4.75;72.73
74403;BME280;62837;51.082;13.744;2022-12-07T06:17:20;99958.08;;;4.81;72.66
74403;BME280;62837;51.082;13.744;2022-12-07T06:19:51;99958.70;;;4.84;72.69
74403;BME280;62837;51.082;13.744;2022-12-07T06:22:22;99957.10;;;4.87;72.97
74403;BME280;62837;51.082;13.744;2022-12-07T06:24:52;99955.63;;;4.93;72.98
74403;BME280;62837;51.082;13.744;2022-12-07T06:27:23;99955.69;;;5.00;72.70
74403;BME280;62837;51.082;13.744;2022-12-07T06:29:54;99951.42;;;4.97;71.19
74403;BME280;62837;51.082;13.744;2022-12-07T06:32:25;99952.31;;;4.85;71.38
74403;BME280;62837;51.082;13.744;2022-12-07T06:34:56;99952.05;;;4.77;71.72
74403;BME280;62837;51.082;13.744;2022-12-07T06:37:26;99951.96;;;4.68;71.64
74403;BME280;62837;51.082;13.744;2022-12-07T06:39:57;99951.39;;;4.61;71.85
74403;BME280;62837;51.082;13.744;2022-12-07T06:42:29;99949.36;;;4.63;75.39
74403;BME280;62837;51.082;13.744;2022-12-07T06:45:00;99953.80;;;4.63;74.03
74403;BME280;62837;51.082;13.744;2022-12-07T06:47:34;99957.27;;;4.67;74.13
74403;BME280;62837;51.082;13.744;2022-12-07T06:50:11;99956.25;;;4.59;72.41
74403;BME280;62837;51.082;13.744;2022-12-07T06:52:42;99957.19;;;4.46;71.74
74403;BME280;62837;51.082;13.744;2022-12-07T06:55:13;99958.66;;;4.29;71.60
74403;BME280;62837;51.082;13.744;2022-12-07T06:57:44;99960.08;;;4.14;72.42
74403;BME280;62837;51.082;13.744;2022-12-07T07:00:16;99961.30;;;4.02;72.56
74403;BME280;62837;51.082;13.744;2022-12-07T07:02:50;99957.87;;;3.91;74.03
74403;BME280;62837;51.082;13.744;2022-12-07T07:05:21;99963.08;;;3.81;74.17
74403;BME280;62837;51.082;13.744;2022-12-07T07:07:52;99961.01;;;3.71;74.44
74403;BME280;62837;51.082;13.744;2022-12-07T07:10:43;99962.10;;;3.62;74.80
74403;BME280;62837;51.082;13.744;2022-12-07T07:13:14;99963.86;;;3.54;74.87
74403;BME280;62837;51.082;13.744;2022-12-07T07:15:45;99963.45;;;3.48;75.62
74403;BME280;62837;51.082;13.744;2022-12-07T07:18:15;99966.23;;;3.40;76.04
74403;BME280;62837;51.082;13.744;2022-12-07T07:20:46;99969.58;;;3.37;76.07
74403;BME280;62837;51.082;13.744;2022-12-07T07:23:17;99972.13;;;3.36;76.40
74403;BME280;62837;51.082;13.744;2022-12-07T07:25:48;99969.49;;;3.36;76.74
74403;BME280;62837;51.082;13.744;2022-12-07T07:28:19;99973.85;;;3.35;76.89
74403;BME280;62837;51.082;13.744;2022-12-07T07:30:50;99974.13;;;3.32;76.83
74403;BME280;62837;51.082;13.744;2022-12-07T07:33:21;99976.23;;;3.29;76.90
74403;BME280;62837;51.082;13.744;2022-12-07T07:35:52;99973.42;;;3.27;77.28
74403;BME280;62837;51.082;13.744;2022-12-07T07:38:22;99979.36;;;3.26;77.41
74403;BME280;62837;51.082;13.744;2022-12-07T07:40:53;99983.89;;;3.25;77.84
74403;BME280;62837;51.082;13.744;2022-12-07T07:43:24;99981.02;;;3.24;77.95
74403;BME280;62837;51.082;13.744;2022-12-07T07:45:54;99977.06;;;3.22;77.74
74403;BME280;62837;51.082;13.744;2022-12-07T07:48:25;99976.85;;;3.22;78.06
74403;BME280;62837;51.082;13.744;2022-12-07T07:50:56;99977.56;;;3.21;78.32
74403;BME280;62837;51.082;13.744;2022-12-07T07:53:27;99979.77;;;3.21;78.48
74403;BME280;62837;51.082;13.744;2022-12-07T07:55:58;99983.79;;;3.22;78.68
74403;BME280;62837;51.082;13.744;2022-12-07T07:58:28;99981.61;;;3.22;78.62
74403;BME280;62837;51.082;13.744;2022-12-07T08:01:05;99978.42;;;3.24;78.56
74403;BME280;62837;51.082;13.744;2022-12-07T08:03:36;99981.11;;;3.27;78.81
74403;BME280;62837;51.082;13.744;2022-12-07T08:06:07;99983.67;;;3.31;79.00
74403;BME280;62837;51.082;13.744;2022-12-07T08:08:38;99983.45;;;3.33;79.04
74403;BME280;62837;51.082;13.744;2022-12-07T08:11:09;99984.94;;;3.39;79.53
74403;BME280;62837;51.082;13.744;2022-12-07T08:13:40;99985.34;;;3.41;79.20
74403;BME280;62837;51.082;13.744;2022-12-07T08:16:11;99983.45;;;3.42;79.59
74403;BME280;62837;51.082;13.744;2022-12-07T08:18:42;99980.85;;;3.43;79.55
74403;BME280;62837;51.082;13.744;2022-12-07T08:21:15;99981.12;;;3.45;79.28
74403;BME280;62837;51.082;13.744;2022-12-07T08:23:46;99974.02;;;3.49;79.38
74403;BME280;62837;51.082;13.744;2022-12-07T08:26:17;99972.08;;;3.53;79.61
74403;BME280;62837;51.082;13.744;2022-12-07T08:28:48;99968.96;;;3.54;79.84
74403;BME280;62837;51.082;13.744;2022-12-07T08:31:19;99971.84;;;3.54;79.29
74403;BME280;62837;51.082;13.744;2022-12-07T08:33:50;99970.02;;;3.57;79.28
74403;BME280;62837;51.082;13.744;2022-12-07T08:36:20;99970.95;;;3.60;79.06
74403;BME280;62837;51.082;13.744;2022-12-07T08:38:52;99973.17;;;3.63;79.22
74403;BME280;62837;51.082;13.744;2022-12-07T08:41:42;99970.83;;;3.68;79.08
74403;BME280;62837;51.082;13.744;2022-12-07T08:44:13;99973.17;;;3.72;79.07
74403;BME280;62837;51.082;13.744;2022-12-07T08:46:46;99972.89;;;3.75;79.24
74403;BME280;62837;51.082;13.744;2022-12-07T08:49:22;99974.67;;;3.77;78.82
74403;BME280;62837;51.082;13.744;2022-12-07T08:51:56;99979.86;;;3.77;79.06
74403;BME280;62837;51.082;13.744;2022-12-07T08:54:27;99979.75;;;3.79;78.83
74403;BME280;62837;51.082;13.744;2022-12-07T08:56:58;99981.46;;;3.83;78.67
74403;BME280;62837;51.082;13.744;2022-12-07T08:59:30;99979.68;;;3.87;78.60
74403;BME280;62837;51.082;13.744;2022-12-07T09:02:01;99979.16;;;3.90;78.61
74403;BME280;62837;51.082;13.744;2022-12-07T09:04:32;99979.58;;;3.93;78.52
74403;BME280;62837;51.082;13.744;2022-12-07T09:07:03;99976.77;;;3.95;78.59
74403;BME280;62837;51.082;13.744;2022-12-07T09:09:34;99977.46;;;3.98;78.28
74403;BME280;62837;51.082;13.744;2022-12-07T09:12:05;99977.51;;;4.02;78.44
74403;BME280;62837;51.082;13.744;2022-12-07T09:14:36;99976.80;;;4.05;78.17
74403;BME280;62837;51.082;13.744;2022-12-07T09:17:08;99979.54;;;4.10;78.35
74403;BME280;62837;51.082;13.744;2022-12-07T09:19:40;99976.45;;;4.16;78.17
74403;BME280;62837;51.082;13.744;2022-12-07T09:22:11;99977.75;;;4.23;78.08
74403;BME280;62837;51.082;13.744;2022-12-07T09:24:42;99977.40;;;4.31;77.79
74403;BME280;62837;51.082;13.744;2022-12-07T09:27:14;99974.73;;;4.39;77.74
74403;BME280;62837;51.082;13.744;2022-12-07T09:29:47;99975.63;;;4.54;77.74
74403;BME280;62837;51.082;13.744;2022-12-07T09:32:17;99976.02;;;4.57;77.37
74403;BME280;62837;51.082;13.744;2022-12-07T09:34:48;99978.80;;;4.64;78.13
74403;BME280;62837;51.082;13.744;2022-12-07T09:37:19;99983.08;;;4.70;77.04
74403;BME280;62837;51.082;13.744;2022-12-07T09:39:50;99983.95;;;4.71;76.22
74403;BME280;62837;51.082;13.744;2022-12-07T09:42:28;99982.08;;;4.70;76.14
74403;BME280;62837;51.082;13.744;2022-12-07T09:45:01;99977.77;;;4.73;75.89
74403;BME280;62837;51.082;13.744;2022-12-07T09:47:34;99978.30;;;4.73;75.61
74403;BME280;62837;51.082;13.744;2022-12-07T09:50:11;99975.80;;;4.76;75.48
74403;BME280;62837;51.082;13.744;2022-12-07T09:52:44;99974.52;;;4.83;75.51
74403;BME280;62837;51.082;13.744;2022-12-07T09:55:19;99976.23;;;4.92;75.44
74403;BME280;62837;51.082;13.744;2022-12-07T09:57:51;99975.95;;;5.02;75.30
74403;BME280;62837;51.082;13.744;2022-12-07T10:00:23;99969.17;;;5.03;74.90
74403;BME280;62837;51.082;13.744;2022-12-07T10:02:57;99968.73;;;5.03;74.45
74403;BME280;62837;51.082;13.744;2022-12-07T10:05:30;99963.33;;;5.13;74.69
74403;BME280;62837;51.082;13.744;2022-12-07T10:08:03;99956.77;;;5.28;74.74
74403;BME280;62837;51.082;13.744;2022-12-07T10:10:35;99954.60;;;5.46;74.12
74403;BME280;62837;51.082;13.744;2022-12-07T10:13:09;99947.98;;;5.61;73.90
74403;BME280;62837;51.082;13.744;2022-12-07T10:15:46;99944.52;;;5.86;73.71
74403;BME280;62837;51.082;13.744;2022-12-07T10:18:27;99945.73;;;6.13;72.95
74403;BME280;62837;51.082;13.744;2022-12-07T10:21:13;99941.14;;;6.23;71.45
74403;BME280;62837;51.082;13.744;2022-12-07T10:24:01;99934.62;;;6.33;71.40
74403;BME280;62837;51.082;13.744;2022-12-07T10:26:34;99935.48;;;6.52;71.96
74403;BME280;62837;51.082;13.744;2022-12-07T10:29:16;99930.20;;;6.67;71.43
74403;BME280;62837;51.082;13.744;2022-12-07T10:31:51;99932.40;;;6.66;70.75
74403;BME280;62837;51.082;13.744;2022-12-07T10:34:25;99931.76;;;6.51;69.64
74403;BME280;62837;51.082;13.744;2022-12-07T10:37:14;99936.56;;;6.35;70.05
74403;BME280;62837;51.082;13.744;2022-12-07T10:39:47;99932.73;;;6.21;70.55
74403;BME280;62837;51.082;13.744;2022-12-07T10:42:20;99932.66;;;6.07;70.39
74403;BME280;62837;51.082;13.744;2022-12-07T10:45:09;99932.52;;;5.91;70.85
74403;BME280;62837;51.082;13.744;2022-12-07T10:47:46;99928.58;;;5.74;70.92
74403;BME280;62837;51.082;13.744;2022-12-07T10:50:44;99927.33;;;5.62;71.37
74403;BME280;62837;51.082;13.744;2022-12-07T10:53:30;99930.58;;;5.52;71.90
74403;BME280;62837;51.082;13.744;2022-12-07T10:59:04;99932.70;;;5.36;73.04
74403;BME280;62837;51.082;13.744;2022-12-07T11:01:45;99932.56;;;5.30;73.22
74403;BME280;62837;51.082;13.744;2022-12-07T11:04:29;99928.48;;;5.23;73.34
74403;BME280;62837;51.082;13.744;2022-12-07T11:07:06;99924.73;;;5.19;73.61
74403;BME280;62837;51.082;13.744;2022-12-07T11:09:58;99919.27;;;5.17;73.88
74403;BME280;62837;51.082;13.744;2022-12-07T11:12:50;99914.94;;;5.16;74.11
74403;BME280;62837;51.082;13.744;2022-12-07T11:15:28;99912.27;;;5.15;74.18
74403;BME280;62837;51.082;13.744;2022-12-07T11:18:06;99904.84;;;5.17;74.27
74403;BME280;62837;51.082;13.744;2022-12-07T11:20:41;99909.27;;;5.22;74.60
74403;BME280;62837;51.082;13.744;2022-12-07T11:23:18;99906.55;;;5.23;74.43
74403;BME280;62837;51.082;13.744;2022-12-07T11:25:56;99908.40;;;5.23;74.34
74403;BME280;62837;51.082;13.744;2022-12-07T11:28:40;99907.54;;;5.24;74.48
74403;BME280;62837;51.082;13.744;2022-12-07T11:31:21;99906.84;;;5.24;74.17
74403;BME280;62837;51.082;13.744;2022-12-07T11:34:03;99903.46;;;5.19;74.46
74403;BME280;62837;51.082;13.744;2022-12-07T11:36:41;99903.16;;;5.15;74.61
74403;BME280;62837;51.082;13.744;2022-12-07T11:39:26;99907.91;;;5.11;75.15
74403;BME280;62837;51.082;13.744;2022-12-07T11:42:03;99910.30;;;5.00;75.68
74403;BME280;62837;51.082;13.744;2022-12-07T11:44:42;99909.16;;;4.87;76.52
74403;BME280;62837;51.082;13.744;2022-12-07T11:47:20;99912.08;;;4.76;76.95
74403;BME280;62837;51.082;13.744;2022-12-07T11:49:56;99915.55;;;4.67;76.92
74403;BME280;62837;51.082;13.744;2022-12-07T11:52:38;99917.34;;;4.63;77.42
74403;BME280;62837;51.082;13.744;2022-12-07T11:55:21;99914.79;;;4.63;77.59
74403;BME280;62837;51.082;13.744;2022-12-07T11:58:00;99916.77;;;4.66;77.85
74403;BME280;62837;51.082;13.744;2022-12-07T12:00:34;99914.17;;;4.66;78.08
74403;BME280;62837;51.082;13.744;2022-12-07T12:03:11;99909.92;;;4.62;78.21
74403;BME280;62837;51.082;13.744;2022-12-07T12:05:45;99905.64;;;4.60;78.20
74403;BME280;62837;51.082;13.744;2022-12-07T12:08:17;99899.36;;;4.62;78.08
74403;BME280;62837;51.082;13.744;2022-12-07T12:11:21;99897.92;;;4.66;78.42
74403;BME280;62837;51.082;13.744;2022-12-07T12:14:21;99898.80;;;4.68;78.58
74403;BME280;62837;51.082;13.744;2022-12-07T12:17:22;99898.80;;;4.72;78.61
74403;BME280;62837;51.082;13.744;2022-12-07T12:20:03;99898.55;;;4.73;78.59
74403;BME280;62837;51.082;13.744;2022-12-07T12:22:39;99892.02;;;4.80;78.67
74403;BME280;62837;51.082;13.744;2022-12-07T12:25:23;99894.57;;;4.83;78.68
74403;BME280;62837;51.082;13.744;2022-12-07T12:27:57;99891.05;;;4.85;78.63
74403;BME280;62837;51.082;13.744;2022-12-07T12:30:35;99894.64;;;4.86;78.55
74403;BME280;62837;51.082;13.744;2022-12-07T12:33:12;99897.94;;;4.90;78.52
74403;BME280;62837;51.082;13.744;2022-12-07T12:35:44;99895.84;;;4.92;78.73
74403;BME280;62837;51.082;13.744;2022-12-07T12:38:31;99892.89;;;4.95;78.57
74403;BME280;62837;51.082;13.744;2022-12-07T12:41:03;99888.89;;;4.99;78.50
74403;BME280;62837;51.082;13.744;2022-12-07T12:43:49;99887.69;;;4.98;78.35
74403;BME280;62837;51.082;13.744;2022-12-07T12:46:48;99887.31;;;4.98;78.48
74403;BME280;62837;51.082;13.744;2022-12-07T12:49:36;99884.73;;;4.99;78.60
74403;BME280;62837;51.082;13.744;2022-12-07T12:58:40;99885.17;;;4.91;78.16
74403;BME280;62837;51.082;13.744;2022-12-07T13:01:40;99883.55;;;4.87;77.86
74403;BME280;62837;51.082;13.744;2022-12-07T13:04:47;99887.19;;;4.85;77.96
74403;BME280;62837;51.082;13.744;2022-12-07T13:07:54;99893.09;;;4.75;76.81
74403;BME280;62837;51.082;13.744;2022-12-07T13:13:35;99893.80;;;4.38;77.34
74403;BME280;62837;51.082;13.744;2022-12-07T13:16:40;99897.41;;;4.20;77.77
74403;BME280;62837;51.082;13.744;2022-12-07T13:22:59;99893.23;;;3.97;78.70
74403;BME280;62837;51.082;13.744;2022-12-07T13:25:36;99894.50;;;3.87;79.01
74403;BME280;62837;51.082;13.744;2022-12-07T13:28:15;99897.18;;;3.82;79.36
74403;BME280;62837;51.082;13.744;2022-12-07T13:30:54;99898.84;;;3.79;79.50
74403;BME280;62837;51.082;13.744;2022-12-07T13:33:30;99898.16;;;3.79;79.75
74403;BME280;62837;51.082;13.744;2022-12-07T13:36:08;99892.59;;;3.77;79.41
74403;BME280;62837;51.082;13.744;2022-12-07T13:38:51;99888.42;;;3.79;79.98
74403;BME280;62837;51.082;13.744;2022-12-07T13:41:22;99885.27;;;3.82;79.88
74403;BME280;62837;51.082;13.744;2022-12-07T13:44:00;99890.92;;;3.86;79.96
74403;BME280;62837;51.082;13.744;2022-12-07T13:46:45;99891.39;;;3.87;79.58
74403;BME280;62837;51.082;13.744;2022-12-07T13:49:26;99893.45;;;3.85;79.59
74403;BME280;62837;51.082;13.744;2022-12-07T13:52:13;99889.56;;;3.85;79.86
74403;BME280;62837;51.082;13.744;2022-12-07T13:54:49;99887.44;;;3.84;79.90
74403;BME280;62837;51.082;13.744;2022-12-07T13:57:20;99888.41;;;3.84;80.15